createdAt,value
2018-12-31T00:01:49.984Z,75.03
2018-12-31T00:04:18.553Z,74.83
2018-12-31T00:06:47.169Z,77.90
2018-12-31T00:09:15.810Z,78.37
2018-12-31T00:11:44.371Z,77.47
2018-12-31T00:14:13.051Z,77.97
2018-12-31T00:16:41.685Z,76.97
2018-12-31T00:19:10.197Z,77.10
2018-12-31T00:21:38.803Z,78.60
2018-12-31T00:24:07.369Z,75.80
2018-12-31T00:26:35.940Z,76.13
2018-12-31T00:29:04.543Z,66.87
2018-12-31T00:31:33.043Z,66.93
2018-12-31T00:34:01.607Z,77.10
2018-12-31T00:36:30.217Z,71.73
2018-12-31T00:38:58.788Z,68.57
2018-12-31T00:41:27.293Z,77.47
2018-12-31T00:43:55.847Z,77.43
2018-12-31T00:46:24.476Z,76.93
2018-12-31T00:48:53.048Z,77.37
2018-12-31T00:51:22.056Z,76.13
2018-12-31T00:53:50.615Z,76.97
2018-12-31T00:56:19.260Z,76.80
2018-12-31T00:58:47.928Z,77.70
2018-12-31T01:01:16.992Z,77.30
2018-12-31T01:03:45.545Z,77.17
2018-12-31T01:06:14.231Z,76.77
2018-12-31T01:08:42.870Z,54.13
2018-12-31T01:11:11.429Z,40.53
2018-12-31T01:13:40.037Z,61.93
2018-12-31T01:16:08.683Z,77.50
2018-12-31T01:18:38.350Z,62.13
2018-12-31T01:21:06.906Z,62.67
2018-12-31T01:23:35.541Z,43.00
2018-12-31T01:26:04.105Z,55.00
2018-12-31T01:28:33.072Z,74.93
2018-12-31T01:31:01.705Z,76.03
2018-12-31T01:33:30.278Z,74.70
2018-12-31T01:35:58.992Z,50.83
2018-12-31T01:38:27.553Z,45.20
2018-12-31T01:40:56.194Z,40.77
2018-12-31T01:43:24.871Z,55.40
2018-12-31T01:45:53.505Z,43.13
2018-12-31T01:48:22.071Z,28.67
2018-12-31T01:50:50.743Z,42.70
2018-12-31T01:53:19.378Z,57.00
2018-12-31T01:55:47.933Z,60.00
2018-12-31T01:58:16.616Z,70.93
2018-12-31T02:00:45.266Z,62.97
2018-12-31T02:03:13.903Z,67.97
2018-12-31T02:05:42.575Z,75.33
2018-12-31T02:08:11.142Z,77.33
2018-12-31T02:10:39.719Z,77.60
2018-12-31T02:13:11.140Z,58.20
2018-12-31T02:15:39.824Z,72.03
2018-12-31T02:18:08.414Z,76.63
2018-12-31T02:20:37.378Z,73.93
2018-12-31T02:23:06.007Z,69.00
2018-12-31T02:25:34.577Z,58.93
2018-12-31T02:28:03.255Z,47.47
2018-12-31T02:30:31.884Z,43.90
2018-12-31T02:33:00.527Z,62.37
2018-12-31T02:35:29.450Z,76.13
2018-12-31T02:37:58.076Z,77.83
2018-12-31T02:40:26.635Z,77.33
2018-12-31T02:42:55.246Z,76.67
2018-12-31T02:45:23.883Z,75.87
2018-12-31T02:47:52.388Z,76.60
2018-12-31T02:50:21.065Z,74.23
2018-12-31T02:52:49.700Z,77.13
2018-12-31T02:55:18.328Z,75.93
2018-12-31T02:57:46.938Z,76.63
2018-12-31T03:00:15.776Z,76.93
2018-12-31T03:02:44.350Z,77.37
2018-12-31T03:05:13.042Z,74.77
2018-12-31T03:07:41.681Z,75.47
2018-12-31T03:10:10.273Z,75.13
2018-12-31T03:12:38.946Z,76.03
2018-12-31T03:15:07.592Z,77.27
2018-12-31T03:17:36.216Z,74.40
2018-12-31T03:20:04.944Z,76.13
2018-12-31T03:22:33.586Z,75.00
2018-12-31T03:25:02.085Z,76.80
2018-12-31T03:27:30.765Z,77.53
2018-12-31T03:29:59.392Z,75.10
2018-12-31T03:32:28.359Z,75.43
2018-12-31T03:34:56.929Z,77.20
2018-12-31T03:37:25.498Z,75.93
2018-12-31T03:39:54.063Z,66.17
2018-12-31T03:42:22.951Z,60.80
2018-12-31T03:44:51.509Z,50.47
2018-12-31T03:47:20.076Z,66.37
2018-12-31T03:49:48.754Z,78.37
2018-12-31T03:52:17.248Z,76.53
2018-12-31T03:54:45.905Z,75.37
2018-12-31T03:57:14.521Z,75.47
2018-12-31T03:59:43.009Z,74.93
2018-12-31T04:02:11.596Z,73.63
2018-12-31T04:04:40.569Z,75.03
2018-12-31T04:07:09.137Z,78.13
2018-12-31T04:09:37.636Z,75.17
2018-12-31T04:12:06.242Z,76.97
2018-12-31T04:14:34.733Z,78.00
2018-12-31T04:17:03.790Z,65.80
2018-12-31T04:19:32.630Z,76.40
2018-12-31T04:22:01.141Z,56.27
2018-12-31T04:24:30.062Z,64.67
2018-12-31T04:26:58.695Z,60.03
2018-12-31T04:29:27.179Z,54.50
2018-12-31T04:31:55.671Z,57.43
2018-12-31T04:34:24.213Z,71.53
2018-12-31T04:36:52.698Z,78.13
2018-12-31T04:39:21.272Z,77.27
2018-12-31T04:41:49.885Z,77.30
2018-12-31T04:44:18.453Z,75.43
2018-12-31T04:46:46.961Z,72.33
2018-12-31T04:49:15.569Z,77.00
2018-12-31T04:51:44.130Z,74.33
2018-12-31T04:54:12.699Z,77.47
2018-12-31T04:56:41.703Z,77.00
2018-12-31T04:59:10.207Z,78.33
2018-12-31T05:01:38.768Z,75.47
2018-12-31T05:04:07.372Z,75.00
2018-12-31T05:06:35.939Z,77.57
2018-12-31T05:09:05.883Z,80.87
2018-12-31T05:11:34.499Z,77.23
2018-12-31T05:14:03.139Z,78.43
2018-12-31T05:16:31.710Z,68.80
2018-12-31T05:19:00.359Z,77.73
2018-12-31T05:21:28.928Z,76.87
2018-12-31T05:23:57.505Z,77.47
2018-12-31T05:26:26.123Z,77.13
2018-12-31T05:28:54.695Z,71.27
2018-12-31T05:31:23.254Z,73.73
2018-12-31T05:33:51.869Z,76.87
2018-12-31T05:36:20.495Z,69.57
2018-12-31T05:38:49.066Z,58.53
2018-12-31T05:41:17.922Z,70.00
2018-12-31T05:43:46.460Z,57.97
2018-12-31T05:46:15.028Z,20.63
2018-12-31T05:48:43.634Z,44.57
2018-12-31T05:51:12.259Z,13.17
2018-12-31T05:53:40.833Z,14.57
2018-12-31T05:56:09.792Z,47.20
2018-12-31T05:58:38.364Z,81.37
2018-12-31T06:01:06.943Z,72.27
2018-12-31T06:03:35.550Z,76.43
2018-12-31T06:06:04.123Z,78.83
2018-12-31T06:08:32.760Z,78.60
2018-12-31T06:11:02.399Z,79.43
2018-12-31T06:13:31.195Z,79.03
2018-12-31T06:15:59.831Z,79.03
2018-12-31T06:18:28.500Z,79.17
2018-12-31T06:20:57.236Z,78.27
2018-12-31T06:23:25.797Z,69.97
2018-12-31T06:25:54.343Z,75.13
2018-12-31T06:28:22.980Z,79.97
2018-12-31T06:30:51.617Z,80.47
2018-12-31T06:33:20.302Z,73.00
2018-12-31T06:35:48.866Z,85.27
2018-12-31T06:38:17.506Z,80.43
2018-12-31T06:40:46.182Z,80.57
2018-12-31T06:43:14.755Z,77.60
2018-12-31T06:45:43.396Z,80.07
2018-12-31T06:48:12.079Z,82.87
2018-12-31T06:50:40.642Z,81.50
2018-12-31T06:53:09.215Z,77.83
2018-12-31T06:55:37.827Z,80.53
2018-12-31T06:58:06.470Z,78.23
2018-12-31T07:00:35.103Z,52.10
2018-12-31T07:03:03.713Z,48.70
2018-12-31T07:05:32.343Z,52.47
2018-12-31T07:08:00.991Z,81.50
2018-12-31T07:10:30.292Z,81.67
2018-12-31T07:12:58.933Z,81.83
2018-12-31T07:15:27.515Z,83.30
2018-12-31T07:17:56.134Z,80.87
2018-12-31T07:20:24.768Z,81.97
2018-12-31T07:22:53.334Z,81.53
2018-12-31T07:25:22.027Z,85.13
2018-12-31T07:27:50.284Z,80.87
2018-12-31T07:30:18.787Z,79.77
2018-12-31T07:32:47.812Z,84.27
2018-12-31T07:35:16.379Z,80.73
2018-12-31T07:37:44.952Z,78.97
2018-12-31T07:40:13.489Z,79.20
2018-12-31T07:42:42.057Z,90.87
2018-12-31T07:45:10.643Z,44.23
2018-12-31T07:47:39.155Z,6.97
2018-12-31T07:50:07.639Z,6.80
2018-12-31T07:52:36.209Z,8.83
2018-12-31T07:55:05.185Z,8.33
2018-12-31T07:57:33.748Z,7.27
2018-12-31T08:00:02.320Z,7.03
2018-12-31T08:02:30.928Z,5.80
2018-12-31T08:04:59.491Z,4.97
2018-12-31T08:07:28.062Z,5.03
2018-12-31T08:09:56.739Z,5.37
2018-12-31T08:12:25.311Z,4.60
2018-12-31T08:14:53.874Z,4.47
2018-12-31T08:17:22.579Z,5.20
2018-12-31T08:19:51.140Z,3.90
2018-12-31T08:22:19.710Z,3.80
2018-12-31T08:24:48.296Z,4.10
2018-12-31T08:27:16.940Z,5.37
2018-12-31T08:29:45.578Z,4.93
2018-12-31T08:32:14.184Z,4.77
2018-12-31T08:34:42.752Z,4.80
2018-12-31T08:37:11.699Z,3.93
2018-12-31T08:39:40.374Z,3.80
2018-12-31T08:42:09.035Z,3.27
2018-12-31T08:44:37.664Z,3.40
2018-12-31T08:47:06.834Z,3.50
2018-12-31T08:49:35.366Z,3.00
2018-12-31T08:52:03.991Z,3.30
2018-12-31T08:54:32.695Z,2.83
2018-12-31T08:57:01.334Z,4.10
2018-12-31T08:59:29.914Z,4.93
2018-12-31T09:01:58.580Z,4.13
2018-12-31T09:04:27.232Z,4.13
2018-12-31T09:06:55.868Z,4.17
2018-12-31T09:09:24.592Z,3.97
2018-12-31T09:11:53.167Z,4.13
2018-12-31T09:14:21.791Z,4.37
2018-12-31T09:16:50.476Z,4.73
2018-12-31T09:19:19.046Z,5.57
2018-12-31T09:21:47.619Z,4.60
2018-12-31T09:24:16.222Z,3.40
2018-12-31T09:26:44.861Z,5.00
2018-12-31T09:29:13.494Z,3.13
2018-12-31T09:31:42.193Z,4.37
2018-12-31T09:34:10.746Z,3.70
2018-12-31T09:36:39.378Z,4.90
2018-12-31T09:39:08.051Z,4.50
2018-12-31T09:41:36.622Z,5.57
2018-12-31T09:44:05.732Z,5.53
2018-12-31T09:46:34.319Z,4.53
2018-12-31T09:49:02.892Z,3.43
2018-12-31T09:51:31.447Z,4.87
2018-12-31T09:53:59.976Z,5.07
2018-12-31T09:56:28.605Z,5.07
2018-12-31T09:58:57.095Z,5.43
2018-12-31T10:01:25.692Z,5.30
2018-12-31T10:03:54.322Z,3.67
2018-12-31T10:06:22.949Z,5.27
2018-12-31T10:08:51.493Z,5.40
2018-12-31T10:11:20.052Z,5.10
2018-12-31T10:13:49.115Z,4.10
2018-12-31T10:16:17.714Z,5.77
2018-12-31T10:18:46.344Z,5.00
2018-12-31T10:21:16.106Z,4.60
2018-12-31T10:23:44.967Z,4.67
2018-12-31T10:26:13.611Z,4.43
2018-12-31T10:28:42.173Z,6.00
2018-12-31T10:31:10.860Z,5.40
2018-12-31T10:33:39.486Z,3.27
2018-12-31T10:36:07.974Z,5.40
2018-12-31T10:38:36.969Z,5.40
2018-12-31T10:41:05.595Z,3.90
2018-12-31T10:43:34.162Z,5.07
2018-12-31T10:46:02.756Z,5.23
2018-12-31T10:48:31.321Z,5.13
2018-12-31T10:50:59.957Z,4.87
2018-12-31T10:53:28.631Z,4.10
2018-12-31T10:55:57.281Z,5.37
2018-12-31T10:58:25.841Z,5.40
2018-12-31T11:00:54.530Z,6.90
2018-12-31T11:03:23.157Z,5.77
2018-12-31T11:05:51.715Z,4.70
2018-12-31T11:08:20.323Z,5.40
2018-12-31T11:10:48.896Z,5.40
2018-12-31T11:13:17.530Z,6.97
2018-12-31T11:15:46.210Z,4.53
2018-12-31T11:18:15.253Z,6.23
2018-12-31T11:20:43.805Z,6.87
2018-12-31T11:23:12.344Z,6.67
2018-12-31T11:25:40.906Z,7.37
2018-12-31T11:28:09.472Z,7.40
2018-12-31T11:30:38.202Z,7.47
2018-12-31T11:33:06.758Z,6.70
2018-12-31T11:35:35.331Z,6.70
2018-12-31T11:38:03.917Z,6.83
2018-12-31T11:40:32.479Z,7.53
2018-12-31T11:43:01.046Z,6.87
2018-12-31T11:45:29.662Z,5.93
2018-12-31T11:47:58.148Z,3.50
2018-12-31T11:50:26.775Z,5.33
2018-12-31T11:52:55.375Z,5.37
2018-12-31T11:55:23.935Z,5.90
2018-12-31T11:57:52.424Z,4.80
2018-12-31T12:00:21.045Z,5.83
2018-12-31T12:02:49.615Z,4.80
2018-12-31T12:05:18.173Z,6.03
2018-12-31T12:07:46.771Z,4.90
2018-12-31T12:10:15.341Z,7.30
2018-12-31T12:12:43.962Z,6.37
2018-12-31T12:15:12.571Z,6.20
2018-12-31T12:17:41.060Z,4.40
2018-12-31T12:20:09.633Z,4.63
2018-12-31T12:22:38.225Z,6.00
2018-12-31T12:25:06.867Z,5.30
2018-12-31T12:27:35.523Z,5.73
2018-12-31T12:30:07.163Z,6.07
2018-12-31T12:32:35.626Z,6.27
2018-12-31T12:35:04.572Z,5.13
2018-12-31T12:37:33.172Z,5.33
2018-12-31T12:40:01.815Z,4.70
2018-12-31T12:42:30.335Z,4.47
2018-12-31T12:44:58.939Z,5.47
2018-12-31T12:47:27.490Z,4.83
2018-12-31T12:49:56.056Z,5.23
2018-12-31T12:52:24.631Z,5.23
2018-12-31T12:54:53.296Z,5.27
2018-12-31T12:57:21.867Z,6.23
2018-12-31T12:59:50.471Z,6.00
2018-12-31T13:02:18.962Z,4.07
2018-12-31T13:04:47.454Z,4.40
2018-12-31T13:07:16.063Z,5.07
2018-12-31T13:09:44.624Z,6.13
2018-12-31T13:12:13.194Z,6.03
2018-12-31T13:14:41.810Z,7.00
2018-12-31T13:17:10.454Z,5.83
2018-12-31T13:19:39.013Z,6.20
2018-12-31T13:22:07.692Z,6.00
2018-12-31T13:24:36.255Z,6.17
2018-12-31T13:27:04.821Z,6.53
2018-12-31T13:29:33.509Z,7.47
2018-12-31T13:32:02.143Z,7.23
2018-12-31T13:34:30.718Z,6.30
2018-12-31T13:36:59.695Z,6.90
2018-12-31T13:39:28.263Z,6.93
2018-12-31T13:41:56.907Z,6.77
2018-12-31T13:44:25.584Z,7.60
2018-12-31T13:46:54.156Z,7.30
2018-12-31T13:49:23.123Z,7.30
2018-12-31T13:51:51.784Z,6.70
2018-12-31T13:54:20.315Z,8.03
2018-12-31T13:56:48.884Z,8.93
2018-12-31T13:59:17.558Z,9.60
2018-12-31T14:01:46.571Z,6.87
2018-12-31T14:04:15.224Z,7.23
2018-12-31T14:06:44.960Z,5.93
2018-12-31T14:09:13.713Z,7.30
2018-12-31T14:11:42.344Z,6.13
2018-12-31T14:14:11.336Z,8.80
2018-12-31T14:16:40.469Z,9.87
2018-12-31T14:19:09.123Z,9.00
2018-12-31T14:21:37.750Z,23.57
2018-12-31T14:24:06.389Z,49.50
2018-12-31T14:26:35.428Z,10.00
2018-12-31T14:29:04.100Z,9.70
2018-12-31T14:31:32.736Z,8.50
2018-12-31T14:34:01.414Z,8.60
2018-12-31T14:36:30.091Z,8.17
2018-12-31T14:38:59.050Z,7.87
2018-12-31T14:41:27.688Z,8.73
2018-12-31T14:43:56.359Z,6.80
2018-12-31T14:46:24.999Z,8.10
2018-12-31T14:48:53.629Z,8.03
2018-12-31T14:51:22.988Z,7.00
2018-12-31T14:53:51.620Z,7.90
2018-12-31T14:56:20.334Z,7.63
2018-12-31T14:58:49.028Z,11.77
2018-12-31T15:01:17.663Z,8.93
2018-12-31T15:03:46.290Z,9.00
2018-12-31T15:06:14.988Z,8.30
2018-12-31T15:08:43.611Z,11.80
2018-12-31T15:11:12.250Z,11.90
2018-12-31T15:13:40.852Z,14.37
2018-12-31T15:16:09.494Z,11.20
2018-12-31T15:18:38.134Z,10.03
2018-12-31T15:21:06.818Z,10.60
2018-12-31T15:23:35.472Z,10.23
2018-12-31T15:26:04.103Z,10.07
2018-12-31T15:28:32.786Z,10.27
2018-12-31T15:31:01.422Z,8.40
2018-12-31T15:33:30.065Z,8.10
2018-12-31T15:35:58.734Z,8.80
2018-12-31T15:38:27.369Z,10.30
2018-12-31T15:40:56.004Z,11.10
2018-12-31T15:43:24.699Z,11.93
2018-12-31T15:45:53.380Z,10.83
2018-12-31T15:48:21.998Z,10.43
2018-12-31T15:50:51.036Z,10.57
2018-12-31T15:53:19.681Z,12.37
2018-12-31T15:55:48.526Z,11.20
2018-12-31T15:58:17.231Z,11.40
2018-12-31T16:00:45.782Z,10.90
2018-12-31T16:03:14.428Z,9.50
2018-12-31T16:05:43.039Z,12.43
2018-12-31T16:08:12.100Z,10.57
2018-12-31T16:10:40.657Z,11.13
2018-12-31T16:13:09.482Z,13.20
2018-12-31T16:15:38.109Z,12.90
2018-12-31T16:18:06.747Z,10.47
2018-12-31T16:20:35.720Z,9.57
2018-12-31T16:23:04.673Z,11.43
2018-12-31T16:25:33.312Z,11.83
2018-12-31T16:28:01.983Z,9.53
2018-12-31T16:30:30.619Z,9.23
2018-12-31T16:32:59.566Z,12.63
2018-12-31T16:35:28.178Z,12.80
2018-12-31T16:37:56.819Z,12.87
2018-12-31T16:40:25.448Z,12.53
2018-12-31T16:42:54.123Z,14.37
2018-12-31T16:45:22.690Z,14.37
2018-12-31T16:47:51.191Z,15.20
2018-12-31T16:50:19.903Z,16.03
2018-12-31T16:52:48.544Z,17.63
2018-12-31T16:55:17.111Z,16.67
2018-12-31T16:57:45.735Z,22.07
2018-12-31T17:00:14.301Z,26.27
2018-12-31T17:02:42.941Z,26.90
2018-12-31T17:05:11.579Z,25.30
2018-12-31T17:07:40.206Z,27.73
2018-12-31T17:10:09.840Z,27.47
2018-12-31T17:12:38.968Z,27.37
2018-12-31T17:15:07.541Z,27.63
2018-12-31T17:17:36.183Z,25.57
2018-12-31T17:20:07.582Z,27.83
2018-12-31T17:22:36.081Z,30.17
2018-12-31T17:25:05.087Z,31.23
2018-12-31T17:27:34.045Z,31.73
2018-12-31T17:30:02.594Z,37.50
2018-12-31T17:32:31.162Z,34.57
2018-12-31T17:34:59.712Z,33.67
2018-12-31T17:37:28.217Z,33.07
2018-12-31T17:39:56.863Z,34.90
2018-12-31T17:42:25.541Z,32.63
2018-12-31T17:44:54.170Z,30.67
2018-12-31T17:47:22.755Z,30.77
2018-12-31T17:49:52.207Z,28.03
2018-12-31T17:52:20.837Z,34.13
2018-12-31T17:54:49.349Z,31.23
2018-12-31T17:57:18.045Z,34.50
2018-12-31T17:59:46.539Z,33.53
2018-12-31T18:02:15.193Z,34.07
2018-12-31T18:04:43.893Z,31.00
2018-12-31T18:07:12.452Z,33.07
2018-12-31T18:09:41.026Z,29.97
2018-12-31T18:12:09.722Z,28.90
2018-12-31T18:14:38.365Z,32.43
2018-12-31T18:17:07.174Z,31.10
2018-12-31T18:23:09.626Z,99.20
2018-12-31T18:25:37.882Z,91.80
2018-12-31T18:28:06.529Z,89.30
2018-12-31T18:30:35.578Z,93.67
2018-12-31T18:33:04.149Z,91.23
2018-12-31T18:35:32.420Z,96.13
2018-12-31T18:38:01.112Z,91.03
2018-12-31T18:40:29.385Z,98.53
2018-12-31T18:42:58.022Z,98.80
2018-12-31T18:45:27.081Z,113.70
2018-12-31T18:47:55.651Z,108.77
2018-12-31T18:50:25.088Z,92.50
2018-12-31T18:52:53.629Z,59.53
2018-12-31T18:55:22.222Z,36.63
2018-12-31T18:57:51.095Z,22.23
2018-12-31T19:00:19.707Z,74.00
2018-12-31T19:02:48.229Z,78.83
2018-12-31T19:05:16.889Z,73.27
2018-12-31T19:07:45.489Z,82.17
2018-12-31T19:10:14.531Z,115.20
2018-12-31T19:12:43.116Z,79.30
2018-12-31T19:15:11.647Z,57.77
2018-12-31T19:17:40.204Z,69.17
2018-12-31T19:20:08.778Z,33.07
2018-12-31T19:22:37.413Z,29.23
2018-12-31T19:25:05.919Z,58.93
2018-12-31T19:27:34.562Z,59.60
2018-12-31T19:30:03.162Z,38.33
2018-12-31T19:32:31.797Z,65.37
2018-12-31T19:35:00.371Z,50.73
2018-12-31T19:37:29.962Z,54.97
2018-12-31T19:39:58.588Z,79.83
2018-12-31T19:42:27.162Z,68.90
2018-12-31T19:44:55.834Z,51.50
2018-12-31T19:47:24.413Z,72.43
2018-12-31T19:49:53.718Z,79.57
2018-12-31T19:52:23.235Z,80.97
2018-12-31T19:54:52.285Z,36.63
2018-12-31T19:57:20.793Z,20.87
2018-12-31T19:59:49.419Z,20.30
2018-12-31T20:02:18.384Z,19.30
2018-12-31T20:04:46.950Z,21.00
2018-12-31T20:07:15.564Z,20.03
2018-12-31T20:09:44.127Z,22.67
2018-12-31T20:12:12.708Z,21.77
2018-12-31T20:14:41.741Z,24.33
2018-12-31T20:17:10.298Z,25.00
2018-12-31T20:19:38.936Z,30.53
2018-12-31T20:22:07.622Z,27.07
2018-12-31T20:24:36.191Z,25.47
2018-12-31T20:27:04.675Z,27.93
2018-12-31T20:29:33.767Z,43.23
2018-12-31T20:32:02.413Z,37.90
2018-12-31T20:34:30.988Z,49.10
2018-12-31T20:36:59.663Z,72.80
2018-12-31T20:39:28.192Z,59.00
2018-12-31T20:41:56.779Z,40.20
2018-12-31T20:44:25.506Z,36.13
2018-12-31T20:46:54.153Z,34.30
2018-12-31T20:49:22.734Z,35.17
2018-12-31T20:51:51.378Z,43.07
2018-12-31T20:54:19.945Z,47.67
2018-12-31T20:56:48.534Z,27.23
2018-12-31T20:59:17.751Z,31.13
2018-12-31T21:01:46.331Z,29.20
2018-12-31T21:04:14.965Z,33.87
2018-12-31T21:06:43.649Z,60.67
2018-12-31T21:09:12.298Z,74.47
2018-12-31T21:11:41.134Z,74.73
2018-12-31T21:14:09.834Z,71.07
2018-12-31T21:16:38.917Z,71.33
2018-12-31T21:19:07.479Z,26.63
2018-12-31T21:21:36.163Z,25.40
2018-12-31T21:24:05.103Z,21.03
2018-12-31T21:26:34.029Z,27.70
2018-12-31T21:29:02.723Z,24.87
2018-12-31T21:31:31.362Z,23.53
2018-12-31T21:34:00.016Z,15.70
2018-12-31T21:36:28.988Z,16.47
2018-12-31T21:38:57.657Z,26.20
2018-12-31T21:41:26.271Z,21.27
2018-12-31T21:43:54.891Z,22.20
2018-12-31T21:46:23.511Z,23.57
2018-12-31T21:48:52.168Z,26.33
2018-12-31T21:51:21.163Z,24.57
2018-12-31T21:53:50.672Z,48.40
2018-12-31T21:56:19.754Z,19.27
2018-12-31T21:58:48.436Z,51.70
2018-12-31T22:01:17.062Z,33.43
2018-12-31T22:03:46.127Z,23.70
2018-12-31T22:06:14.825Z,57.30
2018-12-31T22:08:43.476Z,21.13
2018-12-31T22:11:12.098Z,19.83
2018-12-31T22:13:40.777Z,24.13
2018-12-31T22:16:09.422Z,45.40
2018-12-31T22:18:38.043Z,23.73
2018-12-31T22:21:06.733Z,61.73
2018-12-31T22:23:35.289Z,17.13
2018-12-31T22:26:03.956Z,17.67
2018-12-31T22:28:32.642Z,19.20
2018-12-31T22:31:01.522Z,24.37
2018-12-31T22:33:30.177Z,20.93
2018-12-31T22:35:59.161Z,58.67
2018-12-31T22:38:27.839Z,27.73
2018-12-31T22:40:56.450Z,25.57
2018-12-31T22:43:25.423Z,90.53
2018-12-31T22:45:54.076Z,48.53
2018-12-31T22:48:22.635Z,20.53
2018-12-31T22:50:51.321Z,26.57
2018-12-31T22:53:19.885Z,57.13
2018-12-31T22:55:49.687Z,96.37
2018-12-31T22:58:18.372Z,102.47
2018-12-31T23:00:47.004Z,95.70
2018-12-31T23:03:15.652Z,86.60
2018-12-31T23:05:44.325Z,31.00
2018-12-31T23:08:12.971Z,107.73
2018-12-31T23:10:41.626Z,93.90
2018-12-31T23:13:10.305Z,62.57
2018-12-31T23:15:38.954Z,82.47
2018-12-31T23:18:07.528Z,79.63
2018-12-31T23:20:36.224Z,66.00
2018-12-31T23:23:04.784Z,115.43
2018-12-31T23:25:33.356Z,47.40
2018-12-31T23:28:02.031Z,43.30
2018-12-31T23:30:30.628Z,42.20
2018-12-31T23:32:59.274Z,42.87
2018-12-31T23:35:30.093Z,35.87
2018-12-31T23:37:58.553Z,114.57
2018-12-31T23:40:27.189Z,107.97
2018-12-31T23:42:55.982Z,111.10
2018-12-31T23:45:24.645Z,107.57
2018-12-31T23:47:53.380Z,101.30
2018-12-31T23:50:21.985Z,96.63
2018-12-31T23:52:50.582Z,94.43
2018-12-31T23:55:18.846Z,92.97
2018-12-31T23:57:48.324Z,92.03
